sensor_id;sensor_type;location;lat;lon;timestamp;temperature;humidity
19256;DHT22;9762;52.490;13.410;2023-07-28T00:01:07;21.80;98.60
19256;DHT22;9762;52.490;13.410;2023-07-28T00:03:33;21.80;98.80
19256;DHT22;9762;52.490;13.410;2023-07-28T00:05:58;21.80;99.00
19256;DHT22;9762;52.490;13.410;2023-07-28T00:08:24;21.80;99.10
19256;DHT22;9762;52.490;13.410;2023-07-28T00:10:49;21.80;99.00
19256;DHT22;9762;52.490;13.410;2023-07-28T00:13:15;21.80;98.90
19256;DHT22;9762;52.490;13.410;2023-07-28T00:15:41;21.80;99.00
19256;DHT22;9762;52.490;13.410;2023-07-28T00:18:06;21.80;99.00
19256;DHT22;9762;52.490;13.410;2023-07-28T00:20:32;21.80;99.40
19256;DHT22;9762;52.490;13.410;2023-07-28T00:22:57;21.80;99.70
19256;DHT22;9762;52.490;13.410;2023-07-28T00:25:24;21.80;99.60
19256;DHT22;9762;52.490;13.410;2023-07-28T00:27:50;21.80;99.40
19256;DHT22;9762;52.490;13.410;2023-07-28T00:30:15;21.80;99.20
19256;DHT22;9762;52.490;13.410;2023-07-28T00:32:41;21.80;99.10
19256;DHT22;9762;52.490;13.410;2023-07-28T00:35:07;21.90;99.10
19256;DHT22;9762;52.490;13.410;2023-07-28T00:37:33;21.90;99.10
19256;DHT22;9762;52.490;13.410;2023-07-28T00:39:58;21.80;99.50
19256;DHT22;9762;52.490;13.410;2023-07-28T00:42:24;21.80;99.60
19256;DHT22;9762;52.490;13.410;2023-07-28T00:44:49;21.80;99.50
19256;DHT22;9762;52.490;13.410;2023-07-28T00:47:15;21.70;99.50
19256;DHT22;9762;52.490;13.410;2023-07-28T00:49:41;21.70;99.60
19256;DHT22;9762;52.490;13.410;2023-07-28T00:52:07;21.70;99.90
19256;DHT22;9762;52.490;13.410;2023-07-28T00:54:33;21.60;99.90
19256;DHT22;9762;52.490;13.410;2023-07-28T00:57:00;21.60;99.90
19256;DHT22;9762;52.490;13.410;2023-07-28T00:59:27;21.60;99.90
19256;DHT22;9762;52.490;13.410;2023-07-28T01:01:52;21.60;99.90
19256;DHT22;9762;52.490;13.410;2023-07-28T01:04:18;21.60;99.90
19256;DHT22;9762;52.490;13.410;2023-07-28T01:07:01;21.50;99.90
19256;DHT22;9762;52.490;13.410;2023-07-28T01:09:39;21.50;99.90
19256;DHT22;9762;52.490;13.410;2023-07-28T01:12:07;21.50;99.90
19256;DHT22;9762;52.490;13.410;2023-07-28T01:14:34;21.50;99.90
19256;DHT22;9762;52.490;13.410;2023-07-28T01:17:00;21.40;99.90
19256;DHT22;9762;52.490;13.410;2023-07-28T01:19:26;21.40;99.90
19256;DHT22;9762;52.490;13.410;2023-07-28T01:27:37;21.40;99.90
19256;DHT22;9762;52.490;13.410;2023-07-28T01:30:08;21.40;99.90
19256;DHT22;9762;52.490;13.410;2023-07-28T01:32:33;21.40;99.90
19256;DHT22;9762;52.490;13.410;2023-07-28T01:34:59;21.50;99.90
19256;DHT22;9762;52.490;13.410;2023-07-28T01:37:24;21.50;99.90
19256;DHT22;9762;52.490;13.410;2023-07-28T01:39:50;21.50;99.90
19256;DHT22;9762;52.490;13.410;2023-07-28T01:42:16;21.40;99.90
19256;DHT22;9762;52.490;13.410;2023-07-28T01:44:41;21.40;99.90
19256;DHT22;9762;52.490;13.410;2023-07-28T01:47:07;21.40;99.90
19256;DHT22;9762;52.490;13.410;2023-07-28T01:49:32;21.40;99.90
19256;DHT22;9762;52.490;13.410;2023-07-28T01:51:58;21.40;99.90
19256;DHT22;9762;52.490;13.410;2023-07-28T01:54:24;21.40;99.90
19256;DHT22;9762;52.490;13.410;2023-07-28T01:56:49;21.40;99.90
19256;DHT22;9762;52.490;13.410;2023-07-28T01:59:15;21.30;99.90
19256;DHT22;9762;52.490;13.410;2023-07-28T02:01:40;21.30;99.90
19256;DHT22;9762;52.490;13.410;2023-07-28T02:04:06;21.30;99.90
19256;DHT22;9762;52.490;13.410;2023-07-28T02:06:32;21.40;99.90
19256;DHT22;9762;52.490;13.410;2023-07-28T02:08:57;21.40;99.90
19256;DHT22;9762;52.490;13.410;2023-07-28T02:11:23;21.40;99.90
19256;DHT22;9762;52.490;13.410;2023-07-28T02:13:48;21.40;99.90
19256;DHT22;9762;52.490;13.410;2023-07-28T02:16:15;21.50;99.90
19256;DHT22;9762;52.490;13.410;2023-07-28T02:18:41;21.50;99.90
19256;DHT22;9762;52.490;13.410;2023-07-28T02:21:08;21.50;99.90
19256;DHT22;9762;52.490;13.410;2023-07-28T02:23:34;21.50;99.90
19256;DHT22;9762;52.490;13.410;2023-07-28T02:25:59;21.50;99.90
19256;DHT22;9762;52.490;13.410;2023-07-28T02:28:25;21.50;99.90
19256;DHT22;9762;52.490;13.410;2023-07-28T02:30:50;21.40;99.90
19256;DHT22;9762;52.490;13.410;2023-07-28T02:33:16;21.40;99.90
19256;DHT22;9762;52.490;13.410;2023-07-28T02:35:42;21.40;99.90
19256;DHT22;9762;52.490;13.410;2023-07-28T02:38:08;21.30;99.90
19256;DHT22;9762;52.490;13.410;2023-07-28T02:40:33;21.40;99.90
19256;DHT22;9762;52.490;13.410;2023-07-28T02:42:59;21.30;99.90
19256;DHT22;9762;52.490;13.410;2023-07-28T02:45:25;21.40;99.90
19256;DHT22;9762;52.490;13.410;2023-07-28T02:47:51;21.30;99.90
19256;DHT22;9762;52.490;13.410;2023-07-28T02:50:16;21.30;99.90
19256;DHT22;9762;52.490;13.410;2023-07-28T02:52:42;21.30;99.90
19256;DHT22;9762;52.490;13.410;2023-07-28T02:55:08;21.30;99.90
19256;DHT22;9762;52.490;13.410;2023-07-28T02:57:33;21.40;99.90
19256;DHT22;9762;52.490;13.410;2023-07-28T02:59:59;21.40;99.90
19256;DHT22;9762;52.490;13.410;2023-07-28T03:02:24;21.40;99.90
19256;DHT22;9762;52.490;13.410;2023-07-28T03:04:50;21.50;99.90
19256;DHT22;9762;52.490;13.410;2023-07-28T03:07:16;21.40;99.90
19256;DHT22;9762;52.490;13.410;2023-07-28T03:09:42;21.40;99.90
19256;DHT22;9762;52.490;13.410;2023-07-28T03:12:08;21.40;99.90
19256;DHT22;9762;52.490;13.410;2023-07-28T03:14:33;21.40;99.90
19256;DHT22;9762;52.490;13.410;2023-07-28T03:16:59;21.40;99.90
19256;DHT22;9762;52.490;13.410;2023-07-28T03:19:24;21.40;99.90
19256;DHT22;9762;52.490;13.410;2023-07-28T03:21:50;21.40;99.90
19256;DHT22;9762;52.490;13.410;2023-07-28T03:24:16;21.40;99.90
19256;DHT22;9762;52.490;13.410;2023-07-28T03:26:41;21.50;99.90
19256;DHT22;9762;52.490;13.410;2023-07-28T03:29:07;21.50;99.90
19256;DHT22;9762;52.490;13.410;2023-07-28T03:31:33;21.50;99.90
19256;DHT22;9762;52.490;13.410;2023-07-28T03:34:01;21.50;99.90
19256;DHT22;9762;52.490;13.410;2023-07-28T03:36:27;21.50;99.90
19256;DHT22;9762;52.490;13.410;2023-07-28T03:38:53;21.50;99.90
19256;DHT22;9762;52.490;13.410;2023-07-28T03:41:18;21.50;99.90
19256;DHT22;9762;52.490;13.410;2023-07-28T03:43:45;21.50;99.90
19256;DHT22;9762;52.490;13.410;2023-07-28T03:46:11;21.50;99.90
19256;DHT22;9762;52.490;13.410;2023-07-28T03:48:36;21.50;99.90
19256;DHT22;9762;52.490;13.410;2023-07-28T03:51:02;21.50;99.90
19256;DHT22;9762;52.490;13.410;2023-07-28T03:53:28;21.60;99.90
19256;DHT22;9762;52.490;13.410;2023-07-28T03:55:53;21.50;99.90
19256;DHT22;9762;52.490;13.410;2023-07-28T03:58:26;21.50;99.90
19256;DHT22;9762;52.490;13.410;2023-07-28T04:00:52;21.40;99.90
19256;DHT22;9762;52.490;13.410;2023-07-28T04:03:18;21.40;99.90
19256;DHT22;9762;52.490;13.410;2023-07-28T04:05:44;21.40;99.90
19256;DHT22;9762;52.490;13.410;2023-07-28T04:08:10;21.40;99.90
19256;DHT22;9762;52.490;13.410;2023-07-28T04:10:35;21.40;99.90
19256;DHT22;9762;52.490;13.410;2023-07-28T04:13:01;21.40;99.90
19256;DHT22;9762;52.490;13.410;2023-07-28T04:15:26;21.40;99.90
19256;DHT22;9762;52.490;13.410;2023-07-28T04:17:52;21.40;99.90
19256;DHT22;9762;52.490;13.410;2023-07-28T04:20:18;21.40;99.90
19256;DHT22;9762;52.490;13.410;2023-07-28T04:22:43;21.40;99.90
19256;DHT22;9762;52.490;13.410;2023-07-28T04:25:09;21.40;99.90
19256;DHT22;9762;52.490;13.410;2023-07-28T04:27:34;21.40;99.90
19256;DHT22;9762;52.490;13.410;2023-07-28T04:30:00;21.40;99.90
19256;DHT22;9762;52.490;13.410;2023-07-28T04:32:26;21.50;99.90
19256;DHT22;9762;52.490;13.410;2023-07-28T04:34:52;21.50;99.90
19256;DHT22;9762;52.490;13.410;2023-07-28T04:37:19;21.60;99.90
19256;DHT22;9762;52.490;13.410;2023-07-28T04:39:44;21.70;99.90
19256;DHT22;9762;52.490;13.410;2023-07-28T04:42:10;21.70;99.90
19256;DHT22;9762;52.490;13.410;2023-07-28T04:44:37;21.80;99.90
19256;DHT22;9762;52.490;13.410;2023-07-28T04:47:05;21.80;99.90
19256;DHT22;9762;52.490;13.410;2023-07-28T04:49:31;21.90;99.90
19256;DHT22;9762;52.490;13.410;2023-07-28T04:51:56;22.00;99.90
19256;DHT22;9762;52.490;13.410;2023-07-28T04:54:22;22.00;99.90
19256;DHT22;9762;52.490;13.410;2023-07-28T04:56:47;22.10;99.90
19256;DHT22;9762;52.490;13.410;2023-07-28T04:59:15;22.10;99.90
19256;DHT22;9762;52.490;13.410;2023-07-28T05:01:41;22.20;99.90
19256;DHT22;9762;52.490;13.410;2023-07-28T05:04:06;22.20;99.90
19256;DHT22;9762;52.490;13.410;2023-07-28T05:06:32;22.20;99.90
19256;DHT22;9762;52.490;13.410;2023-07-28T05:08:57;22.20;99.90
19256;DHT22;9762;52.490;13.410;2023-07-28T05:11:23;22.20;99.90
19256;DHT22;9762;52.490;13.410;2023-07-28T05:13:49;22.20;99.90
19256;DHT22;9762;52.490;13.410;2023-07-28T05:16:14;22.30;99.90
19256;DHT22;9762;52.490;13.410;2023-07-28T05:18:40;22.30;99.90
19256;DHT22;9762;52.490;13.410;2023-07-28T05:21:08;22.30;99.90
19256;DHT22;9762;52.490;13.410;2023-07-28T05:23:34;22.30;99.90
19256;DHT22;9762;52.490;13.410;2023-07-28T05:25:59;22.30;99.90
19256;DHT22;9762;52.490;13.410;2023-07-28T05:28:25;22.30;99.90
19256;DHT22;9762;52.490;13.410;2023-07-28T05:30:50;22.30;99.90
19256;DHT22;9762;52.490;13.410;2023-07-28T05:33:16;22.30;99.90
19256;DHT22;9762;52.490;13.410;2023-07-28T05:35:42;22.30;99.90
19256;DHT22;9762;52.490;13.410;2023-07-28T05:38:07;22.30;99.90
19256;DHT22;9762;52.490;13.410;2023-07-28T05:40:33;22.30;99.90
19256;DHT22;9762;52.490;13.410;2023-07-28T05:42:58;22.30;99.90
19256;DHT22;9762;52.490;13.410;2023-07-28T05:45:24;22.40;99.90
19256;DHT22;9762;52.490;13.410;2023-07-28T05:47:50;22.40;99.90
19256;DHT22;9762;52.490;13.410;2023-07-28T05:50:15;22.40;99.90
19256;DHT22;9762;52.490;13.410;2023-07-28T05:52:41;22.40;99.90
19256;DHT22;9762;52.490;13.410;2023-07-28T05:55:07;22.40;99.90
19256;DHT22;9762;52.490;13.410;2023-07-28T05:57:32;22.50;99.90
19256;DHT22;9762;52.490;13.410;2023-07-28T05:59:58;22.50;99.90
19256;DHT22;9762;52.490;13.410;2023-07-28T06:02:24;22.50;99.90
19256;DHT22;9762;52.490;13.410;2023-07-28T06:04:49;22.50;99.90
19256;DHT22;9762;52.490;13.410;2023-07-28T06:07:15;22.50;99.90
19256;DHT22;9762;52.490;13.410;2023-07-28T06:09:40;22.50;99.90
19256;DHT22;9762;52.490;13.410;2023-07-28T06:12:06;22.60;99.90
19256;DHT22;9762;52.490;13.410;2023-07-28T06:14:32;22.60;99.90
19256;DHT22;9762;52.490;13.410;2023-07-28T06:16:58;22.60;99.90
19256;DHT22;9762;52.490;13.410;2023-07-28T06:19:23;22.60;99.90
19256;DHT22;9762;52.490;13.410;2023-07-28T06:21:52;22.60;99.90
19256;DHT22;9762;52.490;13.410;2023-07-28T06:24:18;22.60;99.90
19256;DHT22;9762;52.490;13.410;2023-07-28T06:26:44;22.60;99.90
19256;DHT22;9762;52.490;13.410;2023-07-28T06:29:10;22.60;99.90
19256;DHT22;9762;52.490;13.410;2023-07-28T06:31:36;22.70;99.90
19256;DHT22;9762;52.490;13.410;2023-07-28T06:34:01;22.70;99.90
19256;DHT22;9762;52.490;13.410;2023-07-28T06:36:27;22.70;99.90
19256;DHT22;9762;52.490;13.410;2023-07-28T06:38:53;22.70;99.90
19256;DHT22;9762;52.490;13.410;2023-07-28T06:41:21;22.60;99.90
19256;DHT22;9762;52.490;13.410;2023-07-28T06:43:46;22.60;99.90
19256;DHT22;9762;52.490;13.410;2023-07-28T06:46:13;22.60;99.90
19256;DHT22;9762;52.490;13.410;2023-07-28T06:48:39;22.60;99.90
19256;DHT22;9762;52.490;13.410;2023-07-28T06:51:06;22.60;99.90
19256;DHT22;9762;52.490;13.410;2023-07-28T06:53:31;22.60;99.90
19256;DHT22;9762;52.490;13.410;2023-07-28T06:55:57;22.60;99.90
19256;DHT22;9762;52.490;13.410;2023-07-28T06:58:23;22.60;99.90
19256;DHT22;9762;52.490;13.410;2023-07-28T07:00:48;22.60;99.90
19256;DHT22;9762;52.490;13.410;2023-07-28T07:03:14;22.70;99.90
19256;DHT22;9762;52.490;13.410;2023-07-28T07:05:39;22.70;99.90
19256;DHT22;9762;52.490;13.410;2023-07-28T07:08:05;22.70;99.90
19256;DHT22;9762;52.490;13.410;2023-07-28T07:10:31;22.70;99.90
19256;DHT22;9762;52.490;13.410;2023-07-28T07:12:57;22.70;99.90
19256;DHT22;9762;52.490;13.410;2023-07-28T07:15:22;22.70;99.90
19256;DHT22;9762;52.490;13.410;2023-07-28T07:17:48;22.70;99.90
19256;DHT22;9762;52.490;13.410;2023-07-28T07:20:14;22.70;99.90
19256;DHT22;9762;52.490;13.410;2023-07-28T07:22:40;22.80;99.90
19256;DHT22;9762;52.490;13.410;2023-07-28T07:25:06;22.80;99.90
19256;DHT22;9762;52.490;13.410;2023-07-28T07:27:32;22.90;99.90
19256;DHT22;9762;52.490;13.410;2023-07-28T07:29:58;23.00;99.90
19256;DHT22;9762;52.490;13.410;2023-07-28T07:32:24;23.00;99.90
19256;DHT22;9762;52.490;13.410;2023-07-28T07:34:49;23.00;99.90
19256;DHT22;9762;52.490;13.410;2023-07-28T07:37:15;23.10;99.90
19256;DHT22;9762;52.490;13.410;2023-07-28T07:39:40;23.20;99.90
19256;DHT22;9762;52.490;13.410;2023-07-28T07:42:09;23.20;99.90
19256;DHT22;9762;52.490;13.410;2023-07-28T07:44:35;23.30;99.90
19256;DHT22;9762;52.490;13.410;2023-07-28T07:47:00;23.40;99.90
19256;DHT22;9762;52.490;13.410;2023-07-28T07:49:27;23.30;99.90
19256;DHT22;9762;52.490;13.410;2023-07-28T07:51:53;23.30;99.90
19256;DHT22;9762;52.490;13.410;2023-07-28T07:54:18;23.30;99.90
19256;DHT22;9762;52.490;13.410;2023-07-28T07:56:44;23.40;99.90
19256;DHT22;9762;52.490;13.410;2023-07-28T07:59:12;23.40;99.90
19256;DHT22;9762;52.490;13.410;2023-07-28T08:01:37;23.40;99.90
19256;DHT22;9762;52.490;13.410;2023-07-28T08:04:03;23.50;99.70
19256;DHT22;9762;52.490;13.410;2023-07-28T08:06:29;23.50;99.50
19256;DHT22;9762;52.490;13.410;2023-07-28T08:08:54;23.50;99.40
19256;DHT22;9762;52.490;13.410;2023-07-28T08:11:22;23.50;99.00
19256;DHT22;9762;52.490;13.410;2023-07-28T08:13:48;23.60;98.80
19256;DHT22;9762;52.490;13.410;2023-07-28T08:16:14;23.60;98.90
19256;DHT22;9762;52.490;13.410;2023-07-28T08:18:39;23.70;98.90
19256;DHT22;9762;52.490;13.410;2023-07-28T08:21:05;23.80;98.70
19256;DHT22;9762;52.490;13.410;2023-07-28T08:23:30;23.90;98.60
19256;DHT22;9762;52.490;13.410;2023-07-28T08:25:56;23.90;98.30
19256;DHT22;9762;52.490;13.410;2023-07-28T08:28:22;24.00;98.30
19256;DHT22;9762;52.490;13.410;2023-07-28T08:30:57;24.10;98.00
19256;DHT22;9762;52.490;13.410;2023-07-28T08:33:24;24.10;97.60
19256;DHT22;9762;52.490;13.410;2023-07-28T08:35:50;24.10;97.60
19256;DHT22;9762;52.490;13.410;2023-07-28T08:38:16;24.10;97.50
19256;DHT22;9762;52.490;13.410;2023-07-28T08:40:43;24.10;97.40
19256;DHT22;9762;52.490;13.410;2023-07-28T08:43:09;24.00;97.30
19256;DHT22;9762;52.490;13.410;2023-07-28T08:45:36;24.00;97.30
19256;DHT22;9762;52.490;13.410;2023-07-28T08:48:01;24.10;97.30
19256;DHT22;9762;52.490;13.410;2023-07-28T08:50:27;24.10;97.10
19256;DHT22;9762;52.490;13.410;2023-07-28T08:52:53;24.10;96.90
19256;DHT22;9762;52.490;13.410;2023-07-28T08:55:19;24.10;96.90
19256;DHT22;9762;52.490;13.410;2023-07-28T08:57:45;24.20;96.60
19256;DHT22;9762;52.490;13.410;2023-07-28T09:00:11;24.20;96.70
19256;DHT22;9762;52.490;13.410;2023-07-28T09:02:42;24.30;96.70
19256;DHT22;9762;52.490;13.410;2023-07-28T09:05:17;24.30;96.60
19256;DHT22;9762;52.490;13.410;2023-07-28T09:07:43;24.40;96.70
19256;DHT22;9762;52.490;13.410;2023-07-28T09:10:09;24.40;96.70
19256;DHT22;9762;52.490;13.410;2023-07-28T09:12:34;24.40;96.90
19256;DHT22;9762;52.490;13.410;2023-07-28T09:15:09;24.40;97.00
19256;DHT22;9762;52.490;13.410;2023-07-28T09:17:41;24.50;97.30
19256;DHT22;9762;52.490;13.410;2023-07-28T09:20:13;24.50;97.50
19256;DHT22;9762;52.490;13.410;2023-07-28T09:22:39;24.60;97.30
19256;DHT22;9762;52.490;13.410;2023-07-28T09:25:15;24.60;97.20
19256;DHT22;9762;52.490;13.410;2023-07-28T09:27:48;24.60;97.30
19256;DHT22;9762;52.490;13.410;2023-07-28T09:30:14;24.70;97.00
19256;DHT22;9762;52.490;13.410;2023-07-28T09:32:47;24.60;97.00
19256;DHT22;9762;52.490;13.410;2023-07-28T09:35:14;24.60;96.80
19256;DHT22;9762;52.490;13.410;2023-07-28T09:37:42;24.70;96.80
19256;DHT22;9762;52.490;13.410;2023-07-28T09:40:09;24.70;96.90
19256;DHT22;9762;52.490;13.410;2023-07-28T09:42:37;24.70;96.60
19256;DHT22;9762;52.490;13.410;2023-07-28T09:45:04;24.80;96.80
19256;DHT22;9762;52.490;13.410;2023-07-28T09:47:31;24.80;96.70
19256;DHT22;9762;52.490;13.410;2023-07-28T09:49:58;24.90;96.60
19256;DHT22;9762;52.490;13.410;2023-07-28T09:52:31;24.90;96.50
19256;DHT22;9762;52.490;13.410;2023-07-28T09:55:00;25.00;96.40
19256;DHT22;9762;52.490;13.410;2023-07-28T09:57:32;25.00;96.10
19256;DHT22;9762;52.490;13.410;2023-07-28T10:00:01;25.10;96.00
19256;DHT22;9762;52.490;13.410;2023-07-28T10:02:27;25.10;95.90
19256;DHT22;9762;52.490;13.410;2023-07-28T10:04:54;25.20;95.70
19256;DHT22;9762;52.490;13.410;2023-07-28T10:07:20;25.30;95.40
19256;DHT22;9762;52.490;13.410;2023-07-28T10:09:47;25.30;95.20
19256;DHT22;9762;52.490;13.410;2023-07-28T10:12:18;25.30;95.20
19256;DHT22;9762;52.490;13.410;2023-07-28T10:14:44;25.30;95.10
19256;DHT22;9762;52.490;13.410;2023-07-28T10:17:16;25.30;95.00
19256;DHT22;9762;52.490;13.410;2023-07-28T10:19:42;25.30;94.90
19256;DHT22;9762;52.490;13.410;2023-07-28T10:22:11;25.40;95.00
19256;DHT22;9762;52.490;13.410;2023-07-28T10:27:34;25.50;94.80
19256;DHT22;9762;52.490;13.410;2023-07-28T10:30:01;25.60;94.60
19256;DHT22;9762;52.490;13.410;2023-07-28T10:32:40;25.70;94.50
19256;DHT22;9762;52.490;13.410;2023-07-28T10:35:23;25.70;94.10
19256;DHT22;9762;52.490;13.410;2023-07-28T10:37:50;25.70;94.30
19256;DHT22;9762;52.490;13.410;2023-07-28T10:42:52;25.50;95.50
19256;DHT22;9762;52.490;13.410;2023-07-28T10:45:18;25.40;95.60
19256;DHT22;9762;52.490;13.410;2023-07-28T10:47:45;25.40;96.10
19256;DHT22;9762;52.490;13.410;2023-07-28T10:50:11;25.40;96.40
19256;DHT22;9762;52.490;13.410;2023-07-28T10:52:41;25.40;96.70
19256;DHT22;9762;52.490;13.410;2023-07-28T10:55:21;25.40;96.60
19256;DHT22;9762;52.490;13.410;2023-07-28T10:57:48;25.40;96.50
19256;DHT22;9762;52.490;13.410;2023-07-28T11:00:19;25.40;96.40
19256;DHT22;9762;52.490;13.410;2023-07-28T11:02:46;25.50;96.30
19256;DHT22;9762;52.490;13.410;2023-07-28T11:05:18;25.40;95.40
19256;DHT22;9762;52.490;13.410;2023-07-28T11:07:44;25.50;95.70
19256;DHT22;9762;52.490;13.410;2023-07-28T11:10:10;25.50;95.90
19256;DHT22;9762;52.490;13.410;2023-07-28T11:12:44;25.50;95.30
19256;DHT22;9762;52.490;13.410;2023-07-28T11:15:11;25.60;95.00
19256;DHT22;9762;52.490;13.410;2023-07-28T11:17:41;25.60;94.90
19256;DHT22;9762;52.490;13.410;2023-07-28T11:20:23;25.50;95.00
19256;DHT22;9762;52.490;13.410;2023-07-28T11:25:19;25.40;95.90
19256;DHT22;9762;52.490;13.410;2023-07-28T11:27:46;25.40;95.90
19256;DHT22;9762;52.490;13.410;2023-07-28T11:30:13;25.30;95.70
19256;DHT22;9762;52.490;13.410;2023-07-28T11:32:42;25.20;96.40
19256;DHT22;9762;52.490;13.410;2023-07-28T11:35:10;25.10;96.40
19256;DHT22;9762;52.490;13.410;2023-07-28T11:37:37;25.10;96.80
19256;DHT22;9762;52.490;13.410;2023-07-28T11:40:07;24.90;97.20
19256;DHT22;9762;52.490;13.410;2023-07-28T11:42:37;24.80;97.30
19256;DHT22;9762;52.490;13.410;2023-07-28T11:45:04;24.80;97.80
19256;DHT22;9762;52.490;13.410;2023-07-28T11:47:30;24.70;98.30
19256;DHT22;9762;52.490;13.410;2023-07-28T11:49:56;24.80;98.20
19256;DHT22;9762;52.490;13.410;2023-07-28T11:52:28;24.80;98.40
19256;DHT22;9762;52.490;13.410;2023-07-28T11:54:54;24.80;98.40
19256;DHT22;9762;52.490;13.410;2023-07-28T11:57:21;24.90;98.20
19256;DHT22;9762;52.490;13.410;2023-07-28T11:59:46;24.90;97.90
19256;DHT22;9762;52.490;13.410;2023-07-28T12:02:12;25.00;97.60
19256;DHT22;9762;52.490;13.410;2023-07-28T12:04:39;25.10;97.50
19256;DHT22;9762;52.490;13.410;2023-07-28T12:07:15;25.10;97.60
19256;DHT22;9762;52.490;13.410;2023-07-28T12:09:47;25.20;97.80
19256;DHT22;9762;52.490;13.410;2023-07-28T12:12:23;25.20;97.80
19256;DHT22;9762;52.490;13.410;2023-07-28T12:14:49;25.30;97.70
19256;DHT22;9762;52.490;13.410;2023-07-28T12:17:21;25.40;97.70
19256;DHT22;9762;52.490;13.410;2023-07-28T12:20:04;25.60;98.20
19256;DHT22;9762;52.490;13.410;2023-07-28T12:22:44;25.60;98.10
19256;DHT22;9762;52.490;13.410;2023-07-28T12:25:11;25.90;98.00
19256;DHT22;9762;52.490;13.410;2023-07-28T12:27:37;26.00;97.20
19256;DHT22;9762;52.490;13.410;2023-07-28T12:30:03;26.20;96.60
19256;DHT22;9762;52.490;13.410;2023-07-28T12:32:29;26.40;96.50
19256;DHT22;9762;52.490;13.410;2023-07-28T12:34:55;26.50;96.10
19256;DHT22;9762;52.490;13.410;2023-07-28T12:37:21;26.60;95.10
19256;DHT22;9762;52.490;13.410;2023-07-28T12:39:47;26.60;94.60
19256;DHT22;9762;52.490;13.410;2023-07-28T12:42:14;26.70;94.20
19256;DHT22;9762;52.490;13.410;2023-07-28T12:44:41;26.60;94.00
19256;DHT22;9762;52.490;13.410;2023-07-28T12:47:07;26.50;94.00
19256;DHT22;9762;52.490;13.410;2023-07-28T12:49:33;26.30;94.30
19256;DHT22;9762;52.490;13.410;2023-07-28T12:52:01;26.20;94.40
19256;DHT22;9762;52.490;13.410;2023-07-28T12:54:28;26.10;94.50
19256;DHT22;9762;52.490;13.410;2023-07-28T12:56:54;26.00;95.10
19256;DHT22;9762;52.490;13.410;2023-07-28T12:59:20;26.00;95.20
19256;DHT22;9762;52.490;13.410;2023-07-28T13:01:46;26.00;95.40
19256;DHT22;9762;52.490;13.410;2023-07-28T13:04:12;26.10;95.10
19256;DHT22;9762;52.490;13.410;2023-07-28T13:06:37;26.20;95.70
19256;DHT22;9762;52.490;13.410;2023-07-28T13:09:03;26.30;95.10
19256;DHT22;9762;52.490;13.410;2023-07-28T13:11:30;26.40;94.40
19256;DHT22;9762;52.490;13.410;2023-07-28T13:13:55;26.60;94.40
19256;DHT22;9762;52.490;13.410;2023-07-28T13:16:22;26.70;94.10
19256;DHT22;9762;52.490;13.410;2023-07-28T13:18:53;26.80;93.60
19256;DHT22;9762;52.490;13.410;2023-07-28T13:21:19;26.80;93.20
19256;DHT22;9762;52.490;13.410;2023-07-28T13:23:44;26.80;93.00
19256;DHT22;9762;52.490;13.410;2023-07-28T13:26:10;26.70;93.10
19256;DHT22;9762;52.490;13.410;2023-07-28T13:28:36;26.70;93.10
19256;DHT22;9762;52.490;13.410;2023-07-28T13:31:02;26.80;93.20
19256;DHT22;9762;52.490;13.410;2023-07-28T13:33:28;26.80;93.60
19256;DHT22;9762;52.490;13.410;2023-07-28T13:35:54;26.80;93.40
19256;DHT22;9762;52.490;13.410;2023-07-28T13:38:19;26.80;93.50
19256;DHT22;9762;52.490;13.410;2023-07-28T13:40:45;26.80;93.60
19256;DHT22;9762;52.490;13.410;2023-07-28T13:43:10;26.80;93.80
19256;DHT22;9762;52.490;13.410;2023-07-28T13:45:36;26.80;93.60
19256;DHT22;9762;52.490;13.410;2023-07-28T13:48:02;26.80;93.60
19256;DHT22;9762;52.490;13.410;2023-07-28T13:50:28;26.80;93.80
19256;DHT22;9762;52.490;13.410;2023-07-28T13:52:54;26.90;93.80
19256;DHT22;9762;52.490;13.410;2023-07-28T13:55:19;26.80;93.50
19256;DHT22;9762;52.490;13.410;2023-07-28T13:57:45;26.80;93.40
19256;DHT22;9762;52.490;13.410;2023-07-28T14:00:12;26.90;93.50
19256;DHT22;9762;52.490;13.410;2023-07-28T14:02:38;26.90;93.20
19256;DHT22;9762;52.490;13.410;2023-07-28T14:05:04;26.90;93.30
19256;DHT22;9762;52.490;13.410;2023-07-28T14:07:31;26.80;93.30
19256;DHT22;9762;52.490;13.410;2023-07-28T14:09:56;26.90;93.30
19256;DHT22;9762;52.490;13.410;2023-07-28T14:12:22;26.90;93.30
19256;DHT22;9762;52.490;13.410;2023-07-28T14:14:47;26.90;93.20
19256;DHT22;9762;52.490;13.410;2023-07-28T14:17:15;26.90;93.20
19256;DHT22;9762;52.490;13.410;2023-07-28T14:19:41;26.90;93.00
19256;DHT22;9762;52.490;13.410;2023-07-28T14:22:07;26.80;93.00
19256;DHT22;9762;52.490;13.410;2023-07-28T14:24:33;26.80;92.70
19256;DHT22;9762;52.490;13.410;2023-07-28T14:26:58;26.80;93.00
19256;DHT22;9762;52.490;13.410;2023-07-28T14:29:24;26.90;96.40
19256;DHT22;9762;52.490;13.410;2023-07-28T14:31:49;27.00;94.30
19256;DHT22;9762;52.490;13.410;2023-07-28T14:34:15;27.00;94.60
19256;DHT22;9762;52.490;13.410;2023-07-28T14:36:41;27.20;91.90
19256;DHT22;9762;52.490;13.410;2023-07-28T14:39:07;27.30;91.70
19256;DHT22;9762;52.490;13.410;2023-07-28T14:41:32;27.50;91.40
19256;DHT22;9762;52.490;13.410;2023-07-28T14:43:58;27.60;91.00
19256;DHT22;9762;52.490;13.410;2023-07-28T14:46:24;27.70;90.90
19256;DHT22;9762;52.490;13.410;2023-07-28T14:48:51;27.70;90.30
19256;DHT22;9762;52.490;13.410;2023-07-28T14:58:38;28.20;97.80
19256;DHT22;9762;52.490;13.410;2023-07-28T15:01:06;28.40;88.00
19256;DHT22;9762;52.490;13.410;2023-07-28T15:03:33;28.50;87.70
19256;DHT22;9762;52.490;13.410;2023-07-28T15:06:00;28.70;87.10
19256;DHT22;9762;52.490;13.410;2023-07-28T15:08:26;29.00;86.10
19256;DHT22;9762;52.490;13.410;2023-07-28T15:10:52;29.20;84.20
19256;DHT22;9762;52.490;13.410;2023-07-28T15:13:18;29.30;83.20
19256;DHT22;9762;52.490;13.410;2023-07-28T15:15:44;29.40;82.30
19256;DHT22;9762;52.490;13.410;2023-07-28T15:18:09;29.30;81.40
19256;DHT22;9762;52.490;13.410;2023-07-28T15:20:36;29.30;81.80
19256;DHT22;9762;52.490;13.410;2023-07-28T15:23:02;29.30;81.50
19256;DHT22;9762;52.490;13.410;2023-07-28T15:25:28;29.30;81.50
19256;DHT22;9762;52.490;13.410;2023-07-28T15:27:53;29.20;81.50
19256;DHT22;9762;52.490;13.410;2023-07-28T15:30:19;29.00;82.20
19256;DHT22;9762;52.490;13.410;2023-07-28T15:32:45;28.90;81.70
19256;DHT22;9762;52.490;13.410;2023-07-28T15:35:11;28.70;82.30
19256;DHT22;9762;52.490;13.410;2023-07-28T15:37:36;28.60;82.70
19256;DHT22;9762;52.490;13.410;2023-07-28T15:40:03;28.50;83.10
19256;DHT22;9762;52.490;13.410;2023-07-28T15:42:29;28.40;83.30
19256;DHT22;9762;52.490;13.410;2023-07-28T15:44:54;28.20;83.70
19256;DHT22;9762;52.490;13.410;2023-07-28T15:47:20;28.20;83.30